sensor_id;sensor_type;location;lat;lon;timestamp;P1;durP1;ratioP1;P2;durP2;ratioP2
66425;SDS011;53237;46.158;14.604;2023-04-06T00:01:51;10.75;;;8.15;;
66425;SDS011;53237;46.158;14.604;2023-04-06T00:04:17;12.30;;;8.50;;
66425;SDS011;53237;46.158;14.604;2023-04-06T00:06:43;11.18;;;7.88;;
66425;SDS011;53237;46.158;14.604;2023-04-06T00:09:09;13.35;;;8.23;;
66425;SDS011;53237;46.158;14.604;2023-04-06T00:11:35;13.02;;;7.95;;
66425;SDS011;53237;46.158;14.604;2023-04-06T00:14:01;12.93;;;7.95;;
66425;SDS011;53237;46.158;14.604;2023-04-06T00:16:27;9.85;;;7.03;;
66425;SDS011;53237;46.158;14.604;2023-04-06T00:18:53;12.00;;;7.53;;
66425;SDS011;53237;46.158;14.604;2023-04-06T00:21:19;12.13;;;7.97;;
66425;SDS011;53237;46.158;14.604;2023-04-06T00:23:45;12.80;;;7.93;;
66425;SDS011;53237;46.158;14.604;2023-04-06T00:26:11;10.25;;;7.35;;
66425;SDS011;53237;46.158;14.604;2023-04-06T00:28:37;9.93;;;7.53;;
66425;SDS011;53237;46.158;14.604;2023-04-06T00:31:03;11.80;;;7.45;;
66425;SDS011;53237;46.158;14.604;2023-04-06T00:33:29;9.90;;;7.05;;
66425;SDS011;53237;46.158;14.604;2023-04-06T00:35:55;11.10;;;7.18;;
66425;SDS011;53237;46.158;14.604;2023-04-06T00:38:21;9.90;;;7.05;;
66425;SDS011;53237;46.158;14.604;2023-04-06T00:40:48;12.10;;;7.13;;
66425;SDS011;53237;46.158;14.604;2023-04-06T00:43:14;9.57;;;7.18;;
66425;SDS011;53237;46.158;14.604;2023-04-06T00:45:40;8.00;;;6.47;;
66425;SDS011;53237;46.158;14.604;2023-04-06T00:48:07;9.02;;;6.07;;
66425;SDS011;53237;46.158;14.604;2023-04-06T00:50:33;9.70;;;6.72;;
66425;SDS011;53237;46.158;14.604;2023-04-06T00:53:00;10.20;;;6.75;;
66425;SDS011;53237;46.158;14.604;2023-04-06T00:55:26;8.88;;;6.35;;
66425;SDS011;53237;46.158;14.604;2023-04-06T00:57:52;10.57;;;6.53;;
66425;SDS011;53237;46.158;14.604;2023-04-06T01:00:19;10.60;;;6.20;;
66425;SDS011;53237;46.158;14.604;2023-04-06T01:02:45;8.25;;;5.88;;
66425;SDS011;53237;46.158;14.604;2023-04-06T01:05:12;9.88;;;6.15;;
66425;SDS011;53237;46.158;14.604;2023-04-06T01:07:38;9.48;;;6.28;;
66425;SDS011;53237;46.158;14.604;2023-04-06T01:10:05;8.32;;;5.80;;
66425;SDS011;53237;46.158;14.604;2023-04-06T01:12:31;9.90;;;5.85;;
66425;SDS011;53237;46.158;14.604;2023-04-06T01:14:57;8.70;;;5.50;;
66425;SDS011;53237;46.158;14.604;2023-04-06T01:17:23;6.97;;;4.82;;
66425;SDS011;53237;46.158;14.604;2023-04-06T01:19:49;9.40;;;5.50;;
66425;SDS011;53237;46.158;14.604;2023-04-06T01:22:16;9.75;;;5.93;;
66425;SDS011;53237;46.158;14.604;2023-04-06T01:24:42;8.45;;;5.82;;
66425;SDS011;53237;46.158;14.604;2023-04-06T01:27:08;8.93;;;5.78;;
66425;SDS011;53237;46.158;14.604;2023-04-06T01:29:34;9.65;;;5.90;;
66425;SDS011;53237;46.158;14.604;2023-04-06T01:32:00;7.45;;;5.03;;
66425;SDS011;53237;46.158;14.604;2023-04-06T01:34:26;8.13;;;5.70;;
66425;SDS011;53237;46.158;14.604;2023-04-06T01:36:52;7.43;;;4.95;;
66425;SDS011;53237;46.158;14.604;2023-04-06T01:39:18;6.63;;;5.25;;
66425;SDS011;53237;46.158;14.604;2023-04-06T01:41:45;6.30;;;4.80;;
66425;SDS011;53237;46.158;14.604;2023-04-06T01:44:17;7.60;;;5.15;;
66425;SDS011;53237;46.158;14.604;2023-04-06T01:46:46;10.93;;;6.05;;
66425;SDS011;53237;46.158;14.604;2023-04-06T01:49:12;9.18;;;7.18;;
66425;SDS011;53237;46.158;14.604;2023-04-06T01:51:38;8.43;;;6.72;;
66425;SDS011;53237;46.158;14.604;2023-04-06T01:54:05;9.27;;;6.38;;
66425;SDS011;53237;46.158;14.604;2023-04-06T01:56:31;9.68;;;6.90;;
66425;SDS011;53237;46.158;14.604;2023-04-06T01:58:57;9.48;;;6.68;;
66425;SDS011;53237;46.158;14.604;2023-04-06T02:01:23;7.47;;;5.63;;
66425;SDS011;53237;46.158;14.604;2023-04-06T02:03:49;9.00;;;5.97;;
66425;SDS011;53237;46.158;14.604;2023-04-06T02:06:15;8.73;;;6.22;;
66425;SDS011;53237;46.158;14.604;2023-04-06T02:08:41;9.68;;;6.60;;
66425;SDS011;53237;46.158;14.604;2023-04-06T02:11:07;7.30;;;5.63;;
66425;SDS011;53237;46.158;14.604;2023-04-06T02:13:33;7.22;;;5.97;;
66425;SDS011;53237;46.158;14.604;2023-04-06T02:15:59;8.13;;;5.60;;
66425;SDS011;53237;46.158;14.604;2023-04-06T02:18:27;7.72;;;5.70;;
66425;SDS011;53237;46.158;14.604;2023-04-06T02:20:53;7.82;;;6.00;;
66425;SDS011;53237;46.158;14.604;2023-04-06T02:23:19;10.30;;;5.72;;
66425;SDS011;53237;46.158;14.604;2023-04-06T02:25:45;9.23;;;5.82;;
66425;SDS011;53237;46.158;14.604;2023-04-06T02:28:11;7.38;;;5.03;;
66425;SDS011;53237;46.158;14.604;2023-04-06T02:30:37;7.97;;;5.43;;
66425;SDS011;53237;46.158;14.604;2023-04-06T02:33:03;8.88;;;6.10;;
66425;SDS011;53237;46.158;14.604;2023-04-06T02:35:30;8.32;;;5.78;;
66425;SDS011;53237;46.158;14.604;2023-04-06T02:37:56;9.00;;;6.00;;
66425;SDS011;53237;46.158;14.604;2023-04-06T02:40:22;8.57;;;5.60;;
66425;SDS011;53237;46.158;14.604;2023-04-06T02:42:48;7.18;;;5.60;;
66425;SDS011;53237;46.158;14.604;2023-04-06T02:45:14;6.57;;;5.25;;
66425;SDS011;53237;46.158;14.604;2023-04-06T02:47:41;9.00;;;5.55;;
66425;SDS011;53237;46.158;14.604;2023-04-06T02:50:07;8.70;;;5.35;;
66425;SDS011;53237;46.158;14.604;2023-04-06T02:52:34;11.13;;;6.07;;
66425;SDS011;53237;46.158;14.604;2023-04-06T02:55:00;8.25;;;5.45;;
66425;SDS011;53237;46.158;14.604;2023-04-06T02:57:26;8.75;;;5.32;;
66425;SDS011;53237;46.158;14.604;2023-04-06T02:59:52;8.15;;;5.40;;
66425;SDS011;53237;46.158;14.604;2023-04-06T03:02:18;6.65;;;5.10;;
66425;SDS011;53237;46.158;14.604;2023-04-06T03:04:44;7.57;;;5.40;;
66425;SDS011;53237;46.158;14.604;2023-04-06T03:07:10;7.70;;;5.40;;
66425;SDS011;53237;46.158;14.604;2023-04-06T03:09:37;7.63;;;5.03;;
66425;SDS011;53237;46.158;14.604;2023-04-06T03:12:03;8.93;;;5.30;;
66425;SDS011;53237;46.158;14.604;2023-04-06T03:14:29;8.10;;;5.57;;
66425;SDS011;53237;46.158;14.604;2023-04-06T03:16:55;8.00;;;5.45;;
66425;SDS011;53237;46.158;14.604;2023-04-06T03:19:21;8.98;;;5.30;;
66425;SDS011;53237;46.158;14.604;2023-04-06T03:21:47;8.00;;;5.05;;
66425;SDS011;53237;46.158;14.604;2023-04-06T03:24:13;7.70;;;5.18;;
66425;SDS011;53237;46.158;14.604;2023-04-06T03:26:40;6.65;;;4.72;;
66425;SDS011;53237;46.158;14.604;2023-04-06T03:29:06;7.18;;;4.75;;
66425;SDS011;53237;46.158;14.604;2023-04-06T03:31:32;6.03;;;4.43;;
66425;SDS011;53237;46.158;14.604;2023-04-06T03:33:58;6.28;;;4.63;;
66425;SDS011;53237;46.158;14.604;2023-04-06T03:36:24;6.45;;;4.85;;
66425;SDS011;53237;46.158;14.604;2023-04-06T03:38:51;7.50;;;4.57;;
66425;SDS011;53237;46.158;14.604;2023-04-06T03:41:18;7.32;;;4.68;;
66425;SDS011;53237;46.158;14.604;2023-04-06T03:43:44;6.85;;;4.70;;
66425;SDS011;53237;46.158;14.604;2023-04-06T03:46:10;9.68;;;4.90;;
66425;SDS011;53237;46.158;14.604;2023-04-06T03:48:36;6.72;;;4.90;;
66425;SDS011;53237;46.158;14.604;2023-04-06T03:51:03;7.80;;;5.05;;
66425;SDS011;53237;46.158;14.604;2023-04-06T03:53:29;8.48;;;5.55;;
66425;SDS011;53237;46.158;14.604;2023-04-06T03:55:55;6.68;;;4.65;;
66425;SDS011;53237;46.158;14.604;2023-04-06T03:58:21;6.43;;;4.32;;
66425;SDS011;53237;46.158;14.604;2023-04-06T04:00:47;8.27;;;5.35;;
66425;SDS011;53237;46.158;14.604;2023-04-06T04:03:13;9.30;;;4.85;;
66425;SDS011;53237;46.158;14.604;2023-04-06T04:05:39;7.15;;;4.50;;
66425;SDS011;53237;46.158;14.604;2023-04-06T04:08:05;7.40;;;4.80;;
66425;SDS011;53237;46.158;14.604;2023-04-06T04:10:31;9.10;;;5.28;;
66425;SDS011;53237;46.158;14.604;2023-04-06T04:12:57;9.55;;;5.38;;
66425;SDS011;53237;46.158;14.604;2023-04-06T04:15:23;10.10;;;5.22;;
66425;SDS011;53237;46.158;14.604;2023-04-06T04:17:49;6.53;;;4.93;;
66425;SDS011;53237;46.158;14.604;2023-04-06T04:20:16;8.18;;;4.90;;
66425;SDS011;53237;46.158;14.604;2023-04-06T04:22:42;6.97;;;4.63;;
66425;SDS011;53237;46.158;14.604;2023-04-06T04:25:08;9.25;;;5.25;;
66425;SDS011;53237;46.158;14.604;2023-04-06T04:27:34;9.07;;;5.45;;
66425;SDS011;53237;46.158;14.604;2023-04-06T04:30:00;6.72;;;4.95;;
66425;SDS011;53237;46.158;14.604;2023-04-06T04:32:27;6.65;;;5.15;;
66425;SDS011;53237;46.158;14.604;2023-04-06T04:34:53;6.75;;;4.65;;
66425;SDS011;53237;46.158;14.604;2023-04-06T04:37:19;7.20;;;4.85;;
66425;SDS011;53237;46.158;14.604;2023-04-06T04:39:45;7.20;;;4.93;;
66425;SDS011;53237;46.158;14.604;2023-04-06T04:42:11;7.18;;;4.90;;
66425;SDS011;53237;46.158;14.604;2023-04-06T04:44:37;7.10;;;5.03;;
66425;SDS011;53237;46.158;14.604;2023-04-06T04:47:03;9.70;;;5.20;;
66425;SDS011;53237;46.158;14.604;2023-04-06T04:49:29;10.23;;;5.78;;
66425;SDS011;53237;46.158;14.604;2023-04-06T04:51:55;7.15;;;5.57;;
66425;SDS011;53237;46.158;14.604;2023-04-06T04:54:22;7.05;;;5.25;;
66425;SDS011;53237;46.158;14.604;2023-04-06T04:56:48;7.82;;;5.53;;
66425;SDS011;53237;46.158;14.604;2023-04-06T04:59:15;8.80;;;5.32;;
66425;SDS011;53237;46.158;14.604;2023-04-06T05:01:41;8.18;;;5.68;;
66425;SDS011;53237;46.158;14.604;2023-04-06T05:04:07;9.88;;;6.18;;
66425;SDS011;53237;46.158;14.604;2023-04-06T05:06:33;7.68;;;5.43;;
66425;SDS011;53237;46.158;14.604;2023-04-06T05:08:59;8.10;;;6.18;;
66425;SDS011;53237;46.158;14.604;2023-04-06T05:11:25;10.00;;;5.70;;
66425;SDS011;53237;46.158;14.604;2023-04-06T05:13:51;7.30;;;6.00;;
66425;SDS011;53237;46.158;14.604;2023-04-06T05:16:17;10.98;;;6.70;;
66425;SDS011;53237;46.158;14.604;2023-04-06T05:18:43;12.35;;;7.43;;
66425;SDS011;53237;46.158;14.604;2023-04-06T05:21:10;9.25;;;7.50;;
66425;SDS011;53237;46.158;14.604;2023-04-06T05:23:36;9.07;;;7.40;;
66425;SDS011;53237;46.158;14.604;2023-04-06T05:26:02;12.32;;;8.25;;
66425;SDS011;53237;46.158;14.604;2023-04-06T05:28:29;11.13;;;8.20;;
66425;SDS011;53237;46.158;14.604;2023-04-06T05:30:55;11.07;;;8.10;;
66425;SDS011;53237;46.158;14.604;2023-04-06T05:33:22;14.68;;;9.27;;
66425;SDS011;53237;46.158;14.604;2023-04-06T05:35:48;11.60;;;8.73;;
66425;SDS011;53237;46.158;14.604;2023-04-06T05:38:14;11.32;;;8.45;;
66425;SDS011;53237;46.158;14.604;2023-04-06T05:40:40;12.93;;;9.88;;
66425;SDS011;53237;46.158;14.604;2023-04-06T05:43:06;14.65;;;9.35;;
66425;SDS011;53237;46.158;14.604;2023-04-06T05:45:33;13.13;;;9.40;;
66425;SDS011;53237;46.158;14.604;2023-04-06T05:48:00;14.93;;;9.85;;
66425;SDS011;53237;46.158;14.604;2023-04-06T05:50:26;19.40;;;10.80;;
66425;SDS011;53237;46.158;14.604;2023-04-06T05:52:52;20.77;;;12.10;;
66425;SDS011;53237;46.158;14.604;2023-04-06T05:55:18;17.63;;;11.27;;
66425;SDS011;53237;46.158;14.604;2023-04-06T05:57:44;19.67;;;11.70;;
66425;SDS011;53237;46.158;14.604;2023-04-06T06:00:10;23.73;;;13.25;;
66425;SDS011;53237;46.158;14.604;2023-04-06T06:02:36;23.17;;;13.23;;
66425;SDS011;53237;46.158;14.604;2023-04-06T06:05:02;20.58;;;12.88;;
66425;SDS011;53237;46.158;14.604;2023-04-06T06:07:28;23.63;;;12.70;;
66425;SDS011;53237;46.158;14.604;2023-04-06T06:09:58;16.88;;;10.43;;
66425;SDS011;53237;46.158;14.604;2023-04-06T06:12:24;14.00;;;9.13;;
66425;SDS011;53237;46.158;14.604;2023-04-06T06:14:50;17.80;;;10.05;;
66425;SDS011;53237;46.158;14.604;2023-04-06T06:17:16;16.15;;;10.27;;
66425;SDS011;53237;46.158;14.604;2023-04-06T06:19:42;17.23;;;10.43;;
66425;SDS011;53237;46.158;14.604;2023-04-06T06:22:08;16.08;;;9.30;;
66425;SDS011;53237;46.158;14.604;2023-04-06T06:24:34;16.45;;;8.05;;
66425;SDS011;53237;46.158;14.604;2023-04-06T06:27:00;11.20;;;7.05;;
66425;SDS011;53237;46.158;14.604;2023-04-06T06:29:26;12.57;;;7.28;;
66425;SDS011;53237;46.158;14.604;2023-04-06T06:31:52;11.68;;;7.80;;
66425;SDS011;53237;46.158;14.604;2023-04-06T06:34:18;14.38;;;8.38;;
66425;SDS011;53237;46.158;14.604;2023-04-06T06:36:45;15.95;;;8.73;;
66425;SDS011;53237;46.158;14.604;2023-04-06T06:39:11;12.52;;;8.18;;
66425;SDS011;53237;46.158;14.604;2023-04-06T06:41:37;10.20;;;6.75;;
66425;SDS011;53237;46.158;14.604;2023-04-06T06:44:03;11.27;;;7.68;;
66425;SDS011;53237;46.158;14.604;2023-04-06T06:46:30;13.57;;;7.50;;
66425;SDS011;53237;46.158;14.604;2023-04-06T06:48:56;10.00;;;7.18;;
66425;SDS011;53237;46.158;14.604;2023-04-06T06:51:23;10.98;;;7.82;;
66425;SDS011;53237;46.158;14.604;2023-04-06T06:53:49;10.85;;;6.65;;
66425;SDS011;53237;46.158;14.604;2023-04-06T06:56:15;12.10;;;7.85;;
66425;SDS011;53237;46.158;14.604;2023-04-06T06:58:41;10.13;;;7.13;;
66425;SDS011;53237;46.158;14.604;2023-04-06T07:01:07;14.20;;;7.70;;
66425;SDS011;53237;46.158;14.604;2023-04-06T07:03:33;12.45;;;7.13;;
66425;SDS011;53237;46.158;14.604;2023-04-06T07:05:59;7.88;;;5.90;;
66425;SDS011;53237;46.158;14.604;2023-04-06T07:08:25;9.95;;;6.72;;
66425;SDS011;53237;46.158;14.604;2023-04-06T07:10:51;12.98;;;6.75;;
66425;SDS011;53237;46.158;14.604;2023-04-06T07:13:18;9.05;;;5.45;;
66425;SDS011;53237;46.158;14.604;2023-04-06T07:15:50;7.25;;;5.55;;
66425;SDS011;53237;46.158;14.604;2023-04-06T07:18:16;8.93;;;5.60;;
66425;SDS011;53237;46.158;14.604;2023-04-06T07:20:43;9.70;;;5.65;;
66425;SDS011;53237;46.158;14.604;2023-04-06T07:23:09;6.68;;;5.20;;
66425;SDS011;53237;46.158;14.604;2023-04-06T07:25:35;7.90;;;5.72;;
66425;SDS011;53237;46.158;14.604;2023-04-06T07:28:02;7.90;;;5.65;;
66425;SDS011;53237;46.158;14.604;2023-04-06T07:30:28;8.80;;;5.85;;
66425;SDS011;53237;46.158;14.604;2023-04-06T07:32:54;6.30;;;4.75;;
66425;SDS011;53237;46.158;14.604;2023-04-06T07:35:24;10.70;;;6.18;;
66425;SDS011;53237;46.158;14.604;2023-04-06T07:37:51;9.77;;;6.32;;
66425;SDS011;53237;46.158;14.604;2023-04-06T07:40:17;9.90;;;5.82;;
66425;SDS011;53237;46.158;14.604;2023-04-06T07:42:44;9.13;;;5.80;;
66425;SDS011;53237;46.158;14.604;2023-04-06T07:45:10;6.53;;;4.90;;
66425;SDS011;53237;46.158;14.604;2023-04-06T07:47:37;6.18;;;4.95;;
66425;SDS011;53237;46.158;14.604;2023-04-06T07:50:03;7.95;;;4.80;;
66425;SDS011;53237;46.158;14.604;2023-04-06T07:52:29;6.30;;;4.90;;
66425;SDS011;53237;46.158;14.604;2023-04-06T07:54:57;7.95;;;5.60;;
66425;SDS011;53237;46.158;14.604;2023-04-06T07:57:23;6.78;;;4.80;;
66425;SDS011;53237;46.158;14.604;2023-04-06T07:59:49;6.90;;;4.80;;
66425;SDS011;53237;46.158;14.604;2023-04-06T08:02:15;6.47;;;4.85;;
66425;SDS011;53237;46.158;14.604;2023-04-06T08:04:41;5.78;;;4.50;;
66425;SDS011;53237;46.158;14.604;2023-04-06T08:07:07;5.28;;;4.50;;
66425;SDS011;53237;46.158;14.604;2023-04-06T08:09:33;6.05;;;4.30;;
66425;SDS011;53237;46.158;14.604;2023-04-06T08:11:59;6.20;;;4.53;;
66425;SDS011;53237;46.158;14.604;2023-04-06T08:14:25;6.35;;;4.28;;
66425;SDS011;53237;46.158;14.604;2023-04-06T08:16:51;5.00;;;4.47;;
66425;SDS011;53237;46.158;14.604;2023-04-06T08:19:17;5.40;;;4.15;;
66425;SDS011;53237;46.158;14.604;2023-04-06T08:21:44;5.13;;;4.18;;
66425;SDS011;53237;46.158;14.604;2023-04-06T08:24:11;5.45;;;4.50;;
66425;SDS011;53237;46.158;14.604;2023-04-06T08:26:37;5.80;;;4.45;;
66425;SDS011;53237;46.158;14.604;2023-04-06T08:29:03;7.13;;;4.50;;
66425;SDS011;53237;46.158;14.604;2023-04-06T08:31:29;4.05;;;3.65;;
66425;SDS011;53237;46.158;14.604;2023-04-06T08:33:55;5.07;;;3.80;;
66425;SDS011;53237;46.158;14.604;2023-04-06T08:36:21;5.18;;;4.00;;
66425;SDS011;53237;46.158;14.604;2023-04-06T08:38:48;4.93;;;4.20;;
66425;SDS011;53237;46.158;14.604;2023-04-06T08:41:14;4.90;;;3.90;;
66425;SDS011;53237;46.158;14.604;2023-04-06T08:46:07;5.95;;;4.20;;
66425;SDS011;53237;46.158;14.604;2023-04-06T08:48:35;4.45;;;4.00;;
66425;SDS011;53237;46.158;14.604;2023-04-06T08:51:02;4.28;;;3.42;;
66425;SDS011;53237;46.158;14.604;2023-04-06T08:53:28;4.75;;;3.97;;
66425;SDS011;53237;46.158;14.604;2023-04-06T08:55:55;4.88;;;3.63;;
66425;SDS011;53237;46.158;14.604;2023-04-06T08:58:22;5.53;;;3.85;;
66425;SDS011;53237;46.158;14.604;2023-04-06T09:00:48;3.88;;;3.40;;
66425;SDS011;53237;46.158;14.604;2023-04-06T09:03:15;3.83;;;3.45;;
66425;SDS011;53237;46.158;14.604;2023-04-06T09:05:42;4.60;;;4.20;;
66425;SDS011;53237;46.158;14.604;2023-04-06T09:08:08;4.20;;;3.28;;
66425;SDS011;53237;46.158;14.604;2023-04-06T09:10:35;4.30;;;3.78;;
66425;SDS011;53237;46.158;14.604;2023-04-06T09:13:04;3.90;;;3.50;;
66425;SDS011;53237;46.158;14.604;2023-04-06T09:15:30;3.75;;;3.35;;
66425;SDS011;53237;46.158;14.604;2023-04-06T09:17:57;4.28;;;3.88;;
66425;SDS011;53237;46.158;14.604;2023-04-06T09:20:23;3.80;;;3.08;;
66425;SDS011;53237;46.158;14.604;2023-04-06T09:22:56;4.97;;;3.35;;
66425;SDS011;53237;46.158;14.604;2023-04-06T09:25:22;4.20;;;3.80;;
66425;SDS011;53237;46.158;14.604;2023-04-06T09:27:49;3.60;;;3.30;;
66425;SDS011;53237;46.158;14.604;2023-04-06T09:30:24;4.03;;;3.20;;
66425;SDS011;53237;46.158;14.604;2023-04-06T09:32:51;3.78;;;3.47;;
66425;SDS011;53237;46.158;14.604;2023-04-06T09:35:17;3.65;;;3.05;;
66425;SDS011;53237;46.158;14.604;2023-04-06T09:37:47;4.93;;;3.10;;
66425;SDS011;53237;46.158;14.604;2023-04-06T09:40:13;3.88;;;2.97;;
66425;SDS011;53237;46.158;14.604;2023-04-06T09:42:42;4.70;;;3.47;;
66425;SDS011;53237;46.158;14.604;2023-04-06T09:45:08;4.53;;;3.50;;
66425;SDS011;53237;46.158;14.604;2023-04-06T09:47:35;4.20;;;3.25;;
66425;SDS011;53237;46.158;14.604;2023-04-06T09:50:02;5.28;;;3.97;;
66425;SDS011;53237;46.158;14.604;2023-04-06T09:52:38;4.63;;;4.00;;
66425;SDS011;53237;46.158;14.604;2023-04-06T09:55:06;3.42;;;3.13;;
66425;SDS011;53237;46.158;14.604;2023-04-06T10:01:20;3.22;;;2.92;;
66425;SDS011;53237;46.158;14.604;2023-04-06T10:03:26;4.95;;;3.35;;
66425;SDS011;53237;46.158;14.604;2023-04-06T10:05:55;3.65;;;3.28;;
66425;SDS011;53237;46.158;14.604;2023-04-06T10:08:28;4.30;;;3.35;;
66425;SDS011;53237;46.158;14.604;2023-04-06T10:10:54;3.10;;;2.80;;
66425;SDS011;53237;46.158;14.604;2023-04-06T10:13:21;3.78;;;3.17;;
66425;SDS011;53237;46.158;14.604;2023-04-06T10:15:47;3.03;;;2.72;;
66425;SDS011;53237;46.158;14.604;2023-04-06T10:18:13;5.53;;;4.72;;
66425;SDS011;53237;46.158;14.604;2023-04-06T10:23:10;3.53;;;3.10;;
66425;SDS011;53237;46.158;14.604;2023-04-06T10:25:51;2.92;;;2.53;;
66425;SDS011;53237;46.158;14.604;2023-04-06T10:28:18;3.92;;;3.30;;
66425;SDS011;53237;46.158;14.604;2023-04-06T10:30:45;4.05;;;3.65;;
66425;SDS011;53237;46.158;14.604;2023-04-06T10:33:19;4.35;;;3.28;;
66425;SDS011;53237;46.158;14.604;2023-04-06T10:35:45;3.78;;;3.30;;
66425;SDS011;53237;46.158;14.604;2023-04-06T10:38:12;3.92;;;3.00;;
66425;SDS011;53237;46.158;14.604;2023-04-06T10:40:39;5.28;;;3.17;;
66425;SDS011;53237;46.158;14.604;2023-04-06T10:43:19;6.53;;;4.68;;
66425;SDS011;53237;46.158;14.604;2023-04-06T10:45:52;5.53;;;4.00;;
66425;SDS011;53237;46.158;14.604;2023-04-06T10:48:20;4.40;;;4.00;;
66425;SDS011;53237;46.158;14.604;2023-04-06T10:50:48;6.68;;;4.35;;
66425;SDS011;53237;46.158;14.604;2023-04-06T10:53:21;3.80;;;3.33;;
66425;SDS011;53237;46.158;14.604;2023-04-06T10:55:49;3.88;;;3.35;;
66425;SDS011;53237;46.158;14.604;2023-04-06T10:58:15;4.05;;;2.83;;
66425;SDS011;53237;46.158;14.604;2023-04-06T11:00:44;5.95;;;3.60;;
66425;SDS011;53237;46.158;14.604;2023-04-06T11:03:11;3.67;;;2.95;;
66425;SDS011;53237;46.158;14.604;2023-04-06T11:05:37;3.35;;;2.90;;
66425;SDS011;53237;46.158;14.604;2023-04-06T11:08:03;6.03;;;3.40;;
66425;SDS011;53237;46.158;14.604;2023-04-06T11:10:29;4.32;;;3.20;;
66425;SDS011;53237;46.158;14.604;2023-04-06T11:12:55;5.32;;;3.45;;
66425;SDS011;53237;46.158;14.604;2023-04-06T11:15:22;8.48;;;3.42;;
66425;SDS011;53237;46.158;14.604;2023-04-06T11:17:48;4.38;;;3.20;;
66425;SDS011;53237;46.158;14.604;2023-04-06T11:20:15;4.18;;;3.15;;
66425;SDS011;53237;46.158;14.604;2023-04-06T11:22:51;4.10;;;3.58;;
66425;SDS011;53237;46.158;14.604;2023-04-06T11:25:17;5.25;;;3.53;;
66425;SDS011;53237;46.158;14.604;2023-04-06T11:27:44;4.93;;;3.83;;
66425;SDS011;53237;46.158;14.604;2023-04-06T11:30:10;5.18;;;4.38;;
66425;SDS011;53237;46.158;14.604;2023-04-06T11:32:40;4.38;;;3.65;;
66425;SDS011;53237;46.158;14.604;2023-04-06T11:35:07;3.60;;;3.17;;
66425;SDS011;53237;46.158;14.604;2023-04-06T11:37:33;5.30;;;3.25;;
66425;SDS011;53237;46.158;14.604;2023-04-06T11:39:59;3.78;;;3.13;;
66425;SDS011;53237;46.158;14.604;2023-04-06T11:42:26;5.32;;;3.55;;
66425;SDS011;53237;46.158;14.604;2023-04-06T11:44:55;3.97;;;3.47;;
66425;SDS011;53237;46.158;14.604;2023-04-06T11:47:28;5.22;;;3.47;;
66425;SDS011;53237;46.158;14.604;2023-04-06T11:49:55;4.32;;;2.80;;
66425;SDS011;53237;46.158;14.604;2023-04-06T11:52:24;4.00;;;2.90;;
66425;SDS011;53237;46.158;14.604;2023-04-06T11:54:54;4.68;;;3.50;;
66425;SDS011;53237;46.158;14.604;2023-04-06T11:57:22;3.03;;;2.67;;
66425;SDS011;53237;46.158;14.604;2023-04-06T11:59:50;3.25;;;2.58;;
66425;SDS011;53237;46.158;14.604;2023-04-06T12:02:16;4.65;;;3.90;;
66425;SDS011;53237;46.158;14.604;2023-04-06T12:04:43;3.33;;;2.60;;
66425;SDS011;53237;46.158;14.604;2023-04-06T12:07:09;4.53;;;3.92;;
66425;SDS011;53237;46.158;14.604;2023-04-06T12:09:35;4.72;;;3.50;;
66425;SDS011;53237;46.158;14.604;2023-04-06T12:12:02;4.55;;;4.10;;
66425;SDS011;53237;46.158;14.604;2023-04-06T12:14:28;3.97;;;3.67;;
66425;SDS011;53237;46.158;14.604;2023-04-06T12:16:55;3.88;;;3.20;;
66425;SDS011;53237;46.158;14.604;2023-04-06T12:19:22;3.50;;;3.20;;
66425;SDS011;53237;46.158;14.604;2023-04-06T12:21:50;3.25;;;2.75;;
66425;SDS011;53237;46.158;14.604;2023-04-06T12:24:17;3.10;;;2.80;;
66425;SDS011;53237;46.158;14.604;2023-04-06T12:26:43;3.47;;;2.70;;
66425;SDS011;53237;46.158;14.604;2023-04-06T12:29:09;3.83;;;2.40;;
66425;SDS011;53237;46.158;14.604;2023-04-06T12:31:36;4.82;;;2.78;;
66425;SDS011;53237;46.158;14.604;2023-04-06T12:34:03;7.38;;;3.58;;
66425;SDS011;53237;46.158;14.604;2023-04-06T12:36:30;6.03;;;3.90;;
66425;SDS011;53237;46.158;14.604;2023-04-06T12:38:56;4.03;;;3.40;;
66425;SDS011;53237;46.158;14.604;2023-04-06T12:41:22;3.65;;;3.20;;
66425;SDS011;53237;46.158;14.604;2023-04-06T12:43:48;4.40;;;3.33;;
66425;SDS011;53237;46.158;14.604;2023-04-06T12:46:17;3.42;;;3.10;;
66425;SDS011;53237;46.158;14.604;2023-04-06T12:48:43;3.88;;;3.47;;
66425;SDS011;53237;46.158;14.604;2023-04-06T12:51:09;3.75;;;2.97;;
66425;SDS011;53237;46.158;14.604;2023-04-06T12:53:35;3.17;;;2.00;;
66425;SDS011;53237;46.158;14.604;2023-04-06T12:56:02;2.47;;;2.28;;
66425;SDS011;53237;46.158;14.604;2023-04-06T12:58:28;2.95;;;2.75;;
66425;SDS011;53237;46.158;14.604;2023-04-06T13:00:58;3.15;;;2.42;;
66425;SDS011;53237;46.158;14.604;2023-04-06T13:03:27;2.65;;;2.40;;
66425;SDS011;53237;46.158;14.604;2023-04-06T13:05:54;3.00;;;2.70;;
66425;SDS011;53237;46.158;14.604;2023-04-06T13:08:20;3.83;;;2.72;;
66425;SDS011;53237;46.158;14.604;2023-04-06T13:10:46;2.70;;;2.50;;
66425;SDS011;53237;46.158;14.604;2023-04-06T13:13:13;2.97;;;2.58;;
66425;SDS011;53237;46.158;14.604;2023-04-06T13:15:40;2.80;;;2.60;;
66425;SDS011;53237;46.158;14.604;2023-04-06T13:18:06;3.05;;;2.70;;
66425;SDS011;53237;46.158;14.604;2023-04-06T13:20:32;4.07;;;2.95;;
66425;SDS011;53237;46.158;14.604;2023-04-06T13:22:58;3.53;;;2.83;;
66425;SDS011;53237;46.158;14.604;2023-04-06T13:25:24;3.00;;;2.47;;
66425;SDS011;53237;46.158;14.604;2023-04-06T13:27:50;5.88;;;3.30;;
66425;SDS011;53237;46.158;14.604;2023-04-06T13:30:16;3.95;;;3.30;;
66425;SDS011;53237;46.158;14.604;2023-04-06T13:32:43;4.55;;;3.78;;
66425;SDS011;53237;46.158;14.604;2023-04-06T13:35:09;4.50;;;3.15;;
66425;SDS011;53237;46.158;14.604;2023-04-06T13:37:36;3.90;;;3.08;;
66425;SDS011;53237;46.158;14.604;2023-04-06T13:40:02;4.00;;;3.22;;
66425;SDS011;53237;46.158;14.604;2023-04-06T13:42:29;2.78;;;2.58;;
66425;SDS011;53237;46.158;14.604;2023-04-06T13:44:56;2.63;;;2.42;;
66425;SDS011;53237;46.158;14.604;2023-04-06T13:47:22;4.32;;;2.47;;
66425;SDS011;53237;46.158;14.604;2023-04-06T13:49:49;2.95;;;2.65;;
66425;SDS011;53237;46.158;14.604;2023-04-06T13:52:16;2.97;;;2.53;;
66425;SDS011;53237;46.158;14.604;2023-04-06T13:54:43;3.50;;;3.20;;
66425;SDS011;53237;46.158;14.604;2023-04-06T13:57:09;3.28;;;2.97;;
66425;SDS011;53237;46.158;14.604;2023-04-06T13:59:35;3.17;;;2.80;;
66425;SDS011;53237;46.158;14.604;2023-04-06T14:02:02;3.95;;;2.88;;
66425;SDS011;53237;46.158;14.604;2023-04-06T14:04:28;3.45;;;3.15;;
66425;SDS011;53237;46.158;14.604;2023-04-06T14:06:55;4.18;;;3.10;;
66425;SDS011;53237;46.158;14.604;2023-04-06T14:09:21;3.50;;;3.20;;
66425;SDS011;53237;46.158;14.604;2023-04-06T14:11:47;3.47;;;3.00;;
66425;SDS011;53237;46.158;14.604;2023-04-06T14:14:13;6.25;;;3.38;;
66425;SDS011;53237;46.158;14.604;2023-04-06T14:16:39;2.95;;;2.65;;
66425;SDS011;53237;46.158;14.604;2023-04-06T14:19:08;2.33;;;2.13;;
66425;SDS011;53237;46.158;14.604;2023-04-06T14:21:35;5.03;;;3.20;;
66425;SDS011;53237;46.158;14.604;2023-04-06T14:24:01;2.42;;;2.22;;
66425;SDS011;53237;46.158;14.604;2023-04-06T14:26:28;3.10;;;2.80;;
66425;SDS011;53237;46.158;14.604;2023-04-06T14:28:54;3.95;;;2.90;;
66425;SDS011;53237;46.158;14.604;2023-04-06T14:31:20;4.00;;;3.33;;
66425;SDS011;53237;46.158;14.604;2023-04-06T14:33:46;2.63;;;2.42;;
66425;SDS011;53237;46.158;14.604;2023-04-06T14:36:12;3.03;;;2.63;;